Airfield :
LOGIN :

Register | Disclaimer

   EN    FR    IT 

 










Legend :    VFR   Marginal VFR   IFR   Intensive IFR   Very Intensive IFR
Visi :
Ceiling :
>= 8 km
>= 3000ft
5 to 8 km
1000 to 3000 ft
1500m to 5 km
500 to 1000 ft
800 to 1500m
200 to 500 ft
< 800m
< 200 ft
Symbols :   Thunderstorms  Fog  Heavy snow  Heavy precipitations  Wind > 20 kt
SIGMETs :     Misc.  Thunderstorms  Icing  Turbulence  Mountain Waves  Volcanic Ashes






- Airport Elevation : 32 ft
- IATA code : LKZ


EGUL - RAF Lakenheath

CURRENT METAR :
  • 200156Z AUTO 21014KT 9999 BKN028 BKN035 09/06 A2982 RMK AO2 CIG 028V033 CIG 027 RWY06 SLP102 T00910060 $

EXPIRED METARs :
  • 200151Z AUTO 22013KT 9999 BKN028 BKN035 09/06 A2982 RMK AO2 CIG 028V033 CIG 027 RWY06 SLP102 $
  • 200121Z AUTO 22015KT 9999 FEW017 SCT025 BKN033 09/06 A2983 RMK AO2 SLP105 $
  • 200111Z AUTO 21012KT 9999 SCT017 BKN025 BKN033 09/06 A2983 RMK AO2 CIG 017V025 CIG 022 RWY06 SLP105 $
  • 200101Z AUTO 21014KT 9999 BKN017 OVC024 09/06 A2983 RMK AO2 CIG 017V026 SLP105 $
  • 200021Z AUTO 21016G21KT 9999 BKN028 OVC034 09/06 A2984 RMK AO2 SLP108 $
  • 200011Z AUTO 21014KT 9999 SCT023 OVC031 09/06 A2984 RMK AO2 SLP108 $

TAF AMD TAF EGUL
Valid from the 19 at 21:00 until the 21 at 03:00 UTC


192145Z 1921/2103 24012G20KT 9999 BKN025 QNH2985INS
BECMG 2000/2001 22020G30KT 9999 OVC020 510002 QNH2967INS
TEMPO 2006/2009 BKN015
BECMG 2009/2010 21025G35KT 8000 -RA OVC020 620409 510002 QNH2959INS
BECMG 2012/2013 24025G40KT 6000 -SHRA OVC015 610309 510002 QNH2959INS
BECMG 2014/2015 29025G30KT 6000 -SHRA BKN020 610209 510002 QNH2969INS
BECMG 2016/2017 28015G25KT 9999 NSW SCT015 BKN025 QNH2982INS
BECMG 2017/2018 26015G25KT 9999 SKC QNH2985INS TX11/2012Z TN03/2021Z LAST NO AMDS AFT 1922 NEXT 2005



MET'MAP, your aeronautical weather chart ! - Copyright ORBIFLY December 2007 - Disclaimer

ORBIFLY MET'MAP TEAM :

Programming & Development : Alexandra Zaïnal
Concept & original design : Baudouin d'Aumeries
Assistance for programming : Marc-Olivier Méhu
Technical & hardware support : Manuel Goepfert

Contact : metmap@orbifly.com




SOURCES & CREDITS :

   NOAA